KOLE/OLE METAR and TAF weather

Enter ICAO airport designator
Station Type Date Time Source
KOLE METAR 2018/12/12 11:35 UTC NOAA

KOLE 121135Z AUTO 26003KT 7SM OVC008 M03/M03 A3003 RMK AO2


Station Type Date Time Source
KOLE Decoded METAR 2018/12/12 11:35 UTC NOAA

Olean Municipal, NY, United States (KOLE) 42-14N 078-22W
Dec 12, 2018 - 06:35 AM EST / 2018.12.12 1135 UTC
Wind: from the W (260 degrees) at 3 MPH (3 KT):0
Visibility: 7 mile(s):0
Sky conditions: overcast
Temperature: 26 F (-3 C)
Dew Point: 26 F (-3 C)
Relative Humidity: 100%
Pressure (altimeter): 30.03 in. Hg (1016 hPa)
ob: KOLE 121135Z AUTO 26003KT 7SM OVC008 M03/M03 A3003 RMK AO2
cycle: 11

Station Type Date Time Source
KOLE TAF UTC NOAA

Error!


Example: see airport list